Terminal Aerodrome Forecast
Issued by NWS Twin Cities, MN

Home | Current Version | Previous Version | Text Only | Print | Product List | Glossary On
Versions: 1 2 3 4 5 6 7 8 9 10 11 12 13 14 15 16 17
000
FTUS43 KMPX 042320
TAFEAU
TAF
KEAU 042320Z 0500/0524 34004KT P6SM FEW070 SCT250
     FM050400 VRB02KT P6SM SCT250
     FM051500 12004KT P6SM SCT250
     FM052000 19004KT P6SM SCT050 SCT200=

USA.gov is the U.S. government's official web portal to all federal, state and local government web resources and services.